Wednesday, May 24, 2017, 3:13 AM CDT
Back to Local

KMDW, Chicago Midway Airport

Location: Chicago, IL, United States Lat: 41.783
Local Time: 3:13 AM CDT ( 8:13 GMT) Lon: -87.75
Time Zone: US/Central Elev: 620 ft

Show me the last for .
Show Decoded

2017-05-24 02:53 METAR KMDW 240753Z 03008KT 3SM -RA BR FEW006 BKN080 OVC095 13/12 A2961 RMK AO2
                 DZE32RAB32 SLP025 P0002 T01330122 =
2017-05-24 01:53 METAR KMDW 240653Z 05005KT 4SM -DZ BR FEW006 BKN065 OVC085 14/13 A2963 RMK AO2
                 RAE03B23E51DZB03E14B51 SLP032 P0000 T01390128 =
2017-05-24 00:53 METAR KMDW 240553Z 07007KT 3SM -RA BR FEW006 SCT065 OVC080 14/13 A2965 RMK AO2
                 SLP038 P0004 60008 T01390128 10144 20139 401830139 58014 =
2017-05-23 23:53 METAR KMDW 240453Z 09004KT 4SM -RA BR SCT050 OVC070 14/13 A2967 RMK AO2 SLP045
                 P0002 T01390128 =
2017-05-23 22:53 METAR KMDW 240353Z 04003KT 9SM -RA FEW015 OVC075 14/12 A2967 RMK AO2 RAB17
                 SLP046 P0000 T01390122 =
2017-05-23 21:53 METAR KMDW 240253Z 10007KT 10SM FEW015 OVC075 14/13 A2969 RMK AO2 SLP052 60002
                 T01440128 58003 =
2017-05-23 20:53 METAR KMDW 240153Z 04004KT 10SM FEW015 OVC070 14/12 A2969 RMK AO2 SLP053
                 T01390122 =
2017-05-23 19:53 METAR KMDW 240053Z 00000KT 10SM FEW015 BKN065 OVC080 14/13 A2971 RMK AO2 LTG
                 DSNT E RAE44 SLP059 P0002 T01440128 =
2017-05-23 18:53 METAR KMDW 232353Z 09005KT 8SM -RA FEW015 BKN070 OVC090 14/13 A2970 RMK AO2
                 RAB28 SLP055 P0002 60025 T01440133 10183 20139 58007 =
2017-05-23 17:53 METAR KMDW 232253Z 06004KT 10SM FEW015 SCT040 OVC090 14/13 A2970 RMK AO2 LTG
                 DSNT W RAE52 TSE06 SLP055 P0016 T01440128 =
2017-05-23 17:37 METAR KMDW 232237Z 05005KT 5SM -RA FEW014 SCT035 OVC070 14/13 A2971 RMK AO2 LTG
                 DSNT W TSE06 P0015 T01440128 =
2017-05-23 17:21 METAR KMDW 232221Z 17007KT 2 1/2SM RA SCT014 BKN032 OVC055 14/13 A2973 RMK AO2
                 LTG DSNT W TSE06 P0011 T01440128 =
2017-05-23 17:10 METAR KMDW 232210Z 08003KT 3SM RA SCT022 BKN030 OVC055 14/12 A2973 RMK AO2 LTG
                 DSNT S TSE06 P0007 T01440122 =
2017-05-23 16:53 METAR KMDW 232153Z 07006KT 4SM TSRA SCT021CB BKN026 OVC065 15/12 A2973 RMK AO2
                 RAB17E41B50 TSB50 SLP065 OCNL LTGICCC VC S TS VC S MOV N P0006 T01500122 =
2017-05-23 16:43 METAR KMDW 232143Z 10004KT 4SM VCTS SCT021 BKN028 OVC070 16/12 A2973 RMK AO2 LTG
                 DSNT S RAB17E41 P0003 T01560122 =
2017-05-23 15:53 METAR KMDW 232053Z 08006KT 10SM FEW023 BKN055 OVC070 17/13 A2972 RMK AO2 LTG
                 DSNT S RAB01E40 SLP062 P0001 60001 T01670133 56013 =
2017-05-23 14:53 METAR KMDW 231953Z 14004KT 10SM SCT026 SCT055 OVC090 18/12 A2973 RMK AO2 RAE02
                 SLP065 P0000 T01830117 =
2017-05-23 13:53 METAR KMDW 231853Z 00000KT 10SM -RA FEW020 SCT060 OVC100 17/12 A2975 RMK AO2
                 RAE10B53 SLP070 P0000 T01720122 =
2017-05-23 12:53 METAR KMDW 231753Z 21003KT 10SM -RA FEW050 OVC085 17/12 A2976 RMK AO2 SLP075
                 P0000 60003 T01670122 10167 20150 58018 =
2017-05-23 11:53 METAR KMDW 231653Z 21004KT 10SM -RA FEW050 SCT070 OVC090 17/12 A2979 RMK AO2
                 RAB37 SLP085 P0000 T01670122 =
2017-05-23 10:53 METAR KMDW 231553Z 21006KT 10SM FEW050 BKN070 OVC090 16/12 A2980 RMK AO2 RAE31
                 SLP090 P0000 T01560122 =
2017-05-23 09:53 METAR KMDW 231453Z 25008KT 9SM -RA FEW050 BKN065 OVC080 15/13 A2982 RMK AO2
                 SLP094 P0003 60003 T01500133 58001 =
2017-05-23 08:53 METAR KMDW 231353Z 24011G20KT 10SM -RA FEW050 BKN070 OVC085 15/13 A2983 RMK AO2
                 RAB32 SLP097 P0000 T01500133 =
2017-05-23 07:53 METAR KMDW 231253Z 22009KT 10SM FEW055 BKN095 BKN130 BKN250 16/12 A2982 RMK AO2
                 SLP093 T01610122 =
2017-05-23 06:53 METAR KMDW 231153Z 22008KT 10SM FEW055 BKN110 BKN150 BKN250 16/12 A2982 RMK AO2
                 SLP094 70001 T01560122 10161 20156 55003 =
2017-05-23 05:53 METAR KMDW 231053Z 21011KT 10SM BKN095 BKN110 BKN300 16/12 A2981 RMK AO2 SLP090
                 T01560117 =
2017-05-23 04:53 METAR KMDW 230953Z 21009KT 10SM BKN095 BKN110 16/12 A2982 RMK AO2 SLP091
                 T01560122 =
2017-05-23 03:53 METAR KMDW 230853Z 20008KT 10SM OVC090 16/12 A2983 RMK AO2 SLP095 T01560122
                 56016 =

Support USWX by starting your Amazon purchase here.